sensor_id;sensor_type;location;lat;lon;timestamp;P1;durP1;ratioP1;P2;durP2;ratioP2
34146;SDS011;20423;49.448;9.056;2022-12-13T00:00:23;100.28;;;30.63;;
34146;SDS011;20423;49.448;9.056;2022-12-13T00:02:48;113.75;;;33.70;;
34146;SDS011;20423;49.448;9.056;2022-12-13T00:05:14;106.70;;;32.63;;
34146;SDS011;20423;49.448;9.056;2022-12-13T00:07:40;113.80;;;33.33;;
34146;SDS011;20423;49.448;9.056;2022-12-13T00:10:06;92.75;;;31.05;;
34146;SDS011;20423;49.448;9.056;2022-12-13T00:12:32;105.90;;;32.20;;
34146;SDS011;20423;49.448;9.056;2022-12-13T00:14:57;105.30;;;32.70;;
34146;SDS011;20423;49.448;9.056;2022-12-13T00:17:23;95.47;;;32.55;;
34146;SDS011;20423;49.448;9.056;2022-12-13T00:19:49;106.63;;;33.38;;
34146;SDS011;20423;49.448;9.056;2022-12-13T00:22:15;107.97;;;30.80;;
34146;SDS011;20423;49.448;9.056;2022-12-13T00:24:43;115.97;;;32.92;;
34146;SDS011;20423;49.448;9.056;2022-12-13T00:27:09;113.40;;;32.72;;
34146;SDS011;20423;49.448;9.056;2022-12-13T00:29:35;111.63;;;32.00;;
34146;SDS011;20423;49.448;9.056;2022-12-13T00:32:02;100.10;;;32.63;;
34146;SDS011;20423;49.448;9.056;2022-12-13T00:34:28;106.80;;;32.85;;
34146;SDS011;20423;49.448;9.056;2022-12-13T00:36:53;106.72;;;30.38;;
34146;SDS011;20423;49.448;9.056;2022-12-13T00:39:19;107.18;;;30.67;;
34146;SDS011;20423;49.448;9.056;2022-12-13T00:41:45;101.05;;;31.05;;
34146;SDS011;20423;49.448;9.056;2022-12-13T00:44:11;108.65;;;32.03;;
34146;SDS011;20423;49.448;9.056;2022-12-13T00:46:39;112.80;;;31.55;;
34146;SDS011;20423;49.448;9.056;2022-12-13T00:49:06;112.88;;;29.52;;
34146;SDS011;20423;49.448;9.056;2022-12-13T00:51:33;97.93;;;29.20;;
34146;SDS011;20423;49.448;9.056;2022-12-13T00:53:59;108.25;;;30.65;;
34146;SDS011;20423;49.448;9.056;2022-12-13T00:56:26;116.43;;;34.22;;
34146;SDS011;20423;49.448;9.056;2022-12-13T00:58:53;119.38;;;32.40;;
34146;SDS011;20423;49.448;9.056;2022-12-13T01:01:21;108.88;;;31.83;;
34146;SDS011;20423;49.448;9.056;2022-12-13T01:03:52;111.28;;;31.73;;
34146;SDS011;20423;49.448;9.056;2022-12-13T01:06:20;101.72;;;31.08;;
34146;SDS011;20423;49.448;9.056;2022-12-13T01:08:48;106.18;;;32.92;;
34146;SDS011;20423;49.448;9.056;2022-12-13T01:11:14;98.07;;;30.90;;
34146;SDS011;20423;49.448;9.056;2022-12-13T01:13:42;94.30;;;30.38;;
34146;SDS011;20423;49.448;9.056;2022-12-13T01:16:09;109.43;;;31.85;;
34146;SDS011;20423;49.448;9.056;2022-12-13T01:18:36;106.30;;;32.63;;
34146;SDS011;20423;49.448;9.056;2022-12-13T01:21:08;102.95;;;31.90;;
34146;SDS011;20423;49.448;9.056;2022-12-13T01:23:39;112.03;;;33.38;;
34146;SDS011;20423;49.448;9.056;2022-12-13T01:26:06;99.60;;;31.17;;
34146;SDS011;20423;49.448;9.056;2022-12-13T01:28:36;118.45;;;33.97;;
34146;SDS011;20423;49.448;9.056;2022-12-13T01:31:03;112.10;;;32.05;;
34146;SDS011;20423;49.448;9.056;2022-12-13T01:33:33;120.80;;;33.13;;
34146;SDS011;20423;49.448;9.056;2022-12-13T01:36:00;115.68;;;34.00;;
34146;SDS011;20423;49.448;9.056;2022-12-13T01:38:27;113.32;;;35.15;;
34146;SDS011;20423;49.448;9.056;2022-12-13T01:40:53;112.15;;;32.33;;
34146;SDS011;20423;49.448;9.056;2022-12-13T01:44:05;114.07;;;34.53;;
34146;SDS011;20423;49.448;9.056;2022-12-13T01:46:16;104.80;;;32.80;;
34146;SDS011;20423;49.448;9.056;2022-12-13T01:48:56;116.28;;;32.45;;
34146;SDS011;20423;49.448;9.056;2022-12-13T01:51:27;109.35;;;32.10;;
34146;SDS011;20423;49.448;9.056;2022-12-13T01:54:05;119.93;;;32.90;;
34146;SDS011;20423;49.448;9.056;2022-12-13T01:56:36;116.00;;;31.80;;
34146;SDS011;20423;49.448;9.056;2022-12-13T01:59:05;106.57;;;31.03;;
34146;SDS011;20423;49.448;9.056;2022-12-13T02:01:33;111.60;;;32.05;;
34146;SDS011;20423;49.448;9.056;2022-12-13T02:04:00;94.30;;;30.98;;
34146;SDS011;20423;49.448;9.056;2022-12-13T02:06:28;106.25;;;31.17;;
34146;SDS011;20423;49.448;9.056;2022-12-13T02:09:00;110.65;;;34.35;;
34146;SDS011;20423;49.448;9.056;2022-12-13T02:11:28;97.78;;;32.00;;
34146;SDS011;20423;49.448;9.056;2022-12-13T02:13:54;120.72;;;35.58;;
34146;SDS011;20423;49.448;9.056;2022-12-13T02:19:35;118.22;;;34.75;;
34146;SDS011;20423;49.448;9.056;2022-12-13T02:30:50;115.63;;;32.22;;
34146;SDS011;20423;49.448;9.056;2022-12-13T02:33:23;112.28;;;33.40;;
34146;SDS011;20423;49.448;9.056;2022-12-13T02:36:08;118.53;;;33.42;;
34146;SDS011;20423;49.448;9.056;2022-12-13T02:41:33;119.72;;;32.72;;
34146;SDS011;20423;49.448;9.056;2022-12-13T02:49:40;124.10;;;34.35;;
34146;SDS011;20423;49.448;9.056;2022-12-13T02:52:11;111.28;;;36.15;;
34146;SDS011;20423;49.448;9.056;2022-12-13T02:54:39;117.93;;;35.30;;
34146;SDS011;20423;49.448;9.056;2022-12-13T02:57:25;117.22;;;36.15;;
34146;SDS011;20423;49.448;9.056;2022-12-13T02:59:56;95.68;;;32.78;;
34146;SDS011;20423;49.448;9.056;2022-12-13T03:08:05;131.88;;;39.28;;
34146;SDS011;20423;49.448;9.056;2022-12-13T03:10:35;151.52;;;43.13;;
34146;SDS011;20423;49.448;9.056;2022-12-13T03:13:07;137.52;;;39.67;;
34146;SDS011;20423;49.448;9.056;2022-12-13T03:16:07;138.00;;;43.30;;
34146;SDS011;20423;49.448;9.056;2022-12-13T03:18:39;152.95;;;46.00;;
34146;SDS011;20423;49.448;9.056;2022-12-13T03:21:06;128.57;;;42.58;;
34146;SDS011;20423;49.448;9.056;2022-12-13T03:23:33;105.88;;;35.53;;
34146;SDS011;20423;49.448;9.056;2022-12-13T03:26:02;119.60;;;36.67;;
34146;SDS011;20423;49.448;9.056;2022-12-13T03:28:33;121.28;;;36.53;;
34146;SDS011;20423;49.448;9.056;2022-12-13T03:30:59;114.38;;;36.30;;
34146;SDS011;20423;49.448;9.056;2022-12-13T03:33:25;106.72;;;36.25;;
34146;SDS011;20423;49.448;9.056;2022-12-13T03:35:51;103.47;;;36.65;;
34146;SDS011;20423;49.448;9.056;2022-12-13T03:38:16;108.32;;;34.00;;
34146;SDS011;20423;49.448;9.056;2022-12-13T03:40:43;105.53;;;35.92;;
34146;SDS011;20423;49.448;9.056;2022-12-13T03:43:09;104.75;;;33.25;;
34146;SDS011;20423;49.448;9.056;2022-12-13T03:45:35;91.05;;;32.13;;
34146;SDS011;20423;49.448;9.056;2022-12-13T03:48:01;100.97;;;33.42;;
34146;SDS011;20423;49.448;9.056;2022-12-13T03:50:27;85.80;;;30.40;;
34146;SDS011;20423;49.448;9.056;2022-12-13T03:52:59;85.32;;;30.42;;
34146;SDS011;20423;49.448;9.056;2022-12-13T03:55:26;93.40;;;29.38;;
34146;SDS011;20423;49.448;9.056;2022-12-13T03:57:52;86.47;;;29.17;;
34146;SDS011;20423;49.448;9.056;2022-12-13T04:00:18;87.95;;;31.52;;
34146;SDS011;20423;49.448;9.056;2022-12-13T04:02:44;94.65;;;31.02;;
34146;SDS011;20423;49.448;9.056;2022-12-13T04:05:09;88.30;;;30.05;;
34146;SDS011;20423;49.448;9.056;2022-12-13T04:07:35;90.22;;;29.35;;
34146;SDS011;20423;49.448;9.056;2022-12-13T04:10:01;88.50;;;29.30;;
34146;SDS011;20423;49.448;9.056;2022-12-13T04:12:28;82.50;;;29.30;;
34146;SDS011;20423;49.448;9.056;2022-12-13T04:15:13;87.85;;;27.23;;
34146;SDS011;20423;49.448;9.056;2022-12-13T04:17:39;99.28;;;29.33;;
34146;SDS011;20423;49.448;9.056;2022-12-13T04:20:05;88.50;;;29.35;;
34146;SDS011;20423;49.448;9.056;2022-12-13T04:22:31;88.15;;;28.08;;
34146;SDS011;20423;49.448;9.056;2022-12-13T04:24:57;94.45;;;27.25;;
34146;SDS011;20423;49.448;9.056;2022-12-13T04:27:22;89.50;;;30.98;;
34146;SDS011;20423;49.448;9.056;2022-12-13T04:29:48;91.25;;;29.95;;
34146;SDS011;20423;49.448;9.056;2022-12-13T04:32:14;85.93;;;29.98;;
34146;SDS011;20423;49.448;9.056;2022-12-13T04:34:39;89.95;;;29.83;;
34146;SDS011;20423;49.448;9.056;2022-12-13T04:37:05;78.35;;;27.90;;
34146;SDS011;20423;49.448;9.056;2022-12-13T04:39:31;102.80;;;31.33;;
34146;SDS011;20423;49.448;9.056;2022-12-13T04:42:05;86.47;;;31.08;;
34146;SDS011;20423;49.448;9.056;2022-12-13T04:44:31;93.25;;;32.17;;
34146;SDS011;20423;49.448;9.056;2022-12-13T04:46:57;101.25;;;35.75;;
34146;SDS011;20423;49.448;9.056;2022-12-13T04:49:22;91.95;;;32.70;;
34146;SDS011;20423;49.448;9.056;2022-12-13T04:51:48;87.07;;;32.83;;
34146;SDS011;20423;49.448;9.056;2022-12-13T04:54:14;90.65;;;31.80;;
34146;SDS011;20423;49.448;9.056;2022-12-13T04:56:39;91.32;;;32.45;;
34146;SDS011;20423;49.448;9.056;2022-12-13T04:59:05;78.68;;;29.33;;
34146;SDS011;20423;49.448;9.056;2022-12-13T05:01:31;76.15;;;29.02;;
34146;SDS011;20423;49.448;9.056;2022-12-13T05:03:56;81.28;;;30.20;;
34146;SDS011;20423;49.448;9.056;2022-12-13T05:06:22;72.57;;;28.58;;
34146;SDS011;20423;49.448;9.056;2022-12-13T05:08:48;82.57;;;31.05;;
34146;SDS011;20423;49.448;9.056;2022-12-13T05:11:14;77.50;;;29.15;;
34146;SDS011;20423;49.448;9.056;2022-12-13T05:13:39;86.55;;;28.80;;
34146;SDS011;20423;49.448;9.056;2022-12-13T05:16:06;80.68;;;30.58;;
34146;SDS011;20423;49.448;9.056;2022-12-13T05:18:33;79.80;;;29.20;;
34146;SDS011;20423;49.448;9.056;2022-12-13T05:21:02;79.22;;;28.83;;
34146;SDS011;20423;49.448;9.056;2022-12-13T05:23:29;85.35;;;29.80;;
34146;SDS011;20423;49.448;9.056;2022-12-13T05:25:55;78.13;;;28.25;;
34146;SDS011;20423;49.448;9.056;2022-12-13T05:28:21;76.93;;;28.00;;
34146;SDS011;20423;49.448;9.056;2022-12-13T05:30:50;81.30;;;29.77;;
34146;SDS011;20423;49.448;9.056;2022-12-13T05:33:16;77.35;;;28.95;;
34146;SDS011;20423;49.448;9.056;2022-12-13T05:35:50;78.85;;;29.10;;
34146;SDS011;20423;49.448;9.056;2022-12-13T05:38:23;74.22;;;27.00;;
34146;SDS011;20423;49.448;9.056;2022-12-13T05:40:48;71.50;;;26.38;;
34146;SDS011;20423;49.448;9.056;2022-12-13T05:43:23;75.53;;;27.45;;
34146;SDS011;20423;49.448;9.056;2022-12-13T05:45:49;75.40;;;25.27;;
34146;SDS011;20423;49.448;9.056;2022-12-13T05:48:15;68.32;;;26.88;;
34146;SDS011;20423;49.448;9.056;2022-12-13T05:50:41;86.18;;;29.00;;
34146;SDS011;20423;49.448;9.056;2022-12-13T05:53:06;72.40;;;28.02;;
34146;SDS011;20423;49.448;9.056;2022-12-13T05:55:32;69.18;;;26.77;;
34146;SDS011;20423;49.448;9.056;2022-12-13T05:57:58;74.60;;;26.40;;
34146;SDS011;20423;49.448;9.056;2022-12-13T06:00:24;71.70;;;28.70;;
34146;SDS011;20423;49.448;9.056;2022-12-13T06:02:50;74.78;;;28.50;;
34146;SDS011;20423;49.448;9.056;2022-12-13T06:05:16;70.50;;;25.35;;
34146;SDS011;20423;49.448;9.056;2022-12-13T06:07:41;73.13;;;26.85;;
34146;SDS011;20423;49.448;9.056;2022-12-13T06:13:04;75.35;;;27.08;;
34146;SDS011;20423;49.448;9.056;2022-12-13T06:15:30;86.38;;;28.35;;
34146;SDS011;20423;49.448;9.056;2022-12-13T06:17:58;84.25;;;27.63;;
34146;SDS011;20423;49.448;9.056;2022-12-13T06:20:24;86.97;;;29.13;;
34146;SDS011;20423;49.448;9.056;2022-12-13T06:22:50;84.18;;;29.15;;
34146;SDS011;20423;49.448;9.056;2022-12-13T06:25:16;78.95;;;27.02;;
34146;SDS011;20423;49.448;9.056;2022-12-13T06:27:41;77.20;;;27.50;;
34146;SDS011;20423;49.448;9.056;2022-12-13T06:30:07;82.95;;;26.15;;
34146;SDS011;20423;49.448;9.056;2022-12-13T06:32:34;80.95;;;27.58;;
34146;SDS011;20423;49.448;9.056;2022-12-13T06:35:00;78.50;;;25.52;;
34146;SDS011;20423;49.448;9.056;2022-12-13T06:37:25;72.43;;;27.15;;
34146;SDS011;20423;49.448;9.056;2022-12-13T06:39:51;63.03;;;24.88;;
34146;SDS011;20423;49.448;9.056;2022-12-13T06:42:18;72.25;;;25.50;;
34146;SDS011;20423;49.448;9.056;2022-12-13T06:44:44;72.22;;;25.35;;
34146;SDS011;20423;49.448;9.056;2022-12-13T06:47:10;70.10;;;26.00;;
34146;SDS011;20423;49.448;9.056;2022-12-13T06:49:36;73.40;;;24.38;;
34146;SDS011;20423;49.448;9.056;2022-12-13T06:52:02;77.03;;;23.23;;
34146;SDS011;20423;49.448;9.056;2022-12-13T06:54:28;62.10;;;23.02;;
34146;SDS011;20423;49.448;9.056;2022-12-13T06:56:54;78.70;;;26.38;;
34146;SDS011;20423;49.448;9.056;2022-12-13T06:59:20;103.97;;;34.13;;
34146;SDS011;20423;49.448;9.056;2022-12-13T07:01:45;124.15;;;37.03;;
34146;SDS011;20423;49.448;9.056;2022-12-13T07:04:11;165.07;;;50.78;;
34146;SDS011;20423;49.448;9.056;2022-12-13T07:06:37;70.72;;;23.65;;
34146;SDS011;20423;49.448;9.056;2022-12-13T07:09:03;67.90;;;21.27;;
34146;SDS011;20423;49.448;9.056;2022-12-13T07:11:29;58.78;;;20.38;;
34146;SDS011;20423;49.448;9.056;2022-12-13T07:13:57;59.47;;;20.02;;
34146;SDS011;20423;49.448;9.056;2022-12-13T07:16:23;62.85;;;21.88;;
34146;SDS011;20423;49.448;9.056;2022-12-13T07:19:08;56.50;;;20.67;;
34146;SDS011;20423;49.448;9.056;2022-12-13T07:21:35;66.18;;;19.25;;
34146;SDS011;20423;49.448;9.056;2022-12-13T07:24:02;62.17;;;20.83;;
34146;SDS011;20423;49.448;9.056;2022-12-13T07:26:28;57.85;;;20.30;;
34146;SDS011;20423;49.448;9.056;2022-12-13T07:28:54;52.42;;;19.10;;
34146;SDS011;20423;49.448;9.056;2022-12-13T07:31:20;52.60;;;18.90;;
34146;SDS011;20423;49.448;9.056;2022-12-13T07:33:45;58.97;;;22.10;;
34146;SDS011;20423;49.448;9.056;2022-12-13T07:36:12;53.35;;;20.95;;
34146;SDS011;20423;49.448;9.056;2022-12-13T07:38:39;58.13;;;21.48;;
34146;SDS011;20423;49.448;9.056;2022-12-13T07:41:06;55.05;;;21.25;;
34146;SDS011;20423;49.448;9.056;2022-12-13T07:43:32;47.72;;;18.48;;
34146;SDS011;20423;49.448;9.056;2022-12-13T07:45:58;61.63;;;20.25;;
34146;SDS011;20423;49.448;9.056;2022-12-13T07:48:25;46.05;;;17.60;;
34146;SDS011;20423;49.448;9.056;2022-12-13T07:53:45;54.78;;;19.27;;
34146;SDS011;20423;49.448;9.056;2022-12-13T07:56:26;48.20;;;17.17;;
34146;SDS011;20423;49.448;9.056;2022-12-13T07:58:52;47.00;;;18.90;;
34146;SDS011;20423;49.448;9.056;2022-12-13T08:01:17;50.67;;;19.17;;
34146;SDS011;20423;49.448;9.056;2022-12-13T08:03:43;50.00;;;18.45;;
34146;SDS011;20423;49.448;9.056;2022-12-13T08:06:11;48.45;;;17.05;;
34146;SDS011;20423;49.448;9.056;2022-12-13T08:08:40;57.45;;;20.75;;
34146;SDS011;20423;49.448;9.056;2022-12-13T08:11:07;53.22;;;18.45;;
34146;SDS011;20423;49.448;9.056;2022-12-13T08:13:34;52.53;;;18.67;;
34146;SDS011;20423;49.448;9.056;2022-12-13T08:16:04;43.97;;;17.13;;
34146;SDS011;20423;49.448;9.056;2022-12-13T08:18:32;52.17;;;19.30;;
34146;SDS011;20423;49.448;9.056;2022-12-13T08:20:58;54.15;;;18.88;;
34146;SDS011;20423;49.448;9.056;2022-12-13T08:23:25;53.22;;;20.40;;
34146;SDS011;20423;49.448;9.056;2022-12-13T08:25:52;44.90;;;20.00;;
34146;SDS011;20423;49.448;9.056;2022-12-13T08:28:19;48.15;;;17.73;;
34146;SDS011;20423;49.448;9.056;2022-12-13T08:30:46;46.72;;;18.27;;
34146;SDS011;20423;49.448;9.056;2022-12-13T08:33:12;46.05;;;18.88;;
34146;SDS011;20423;49.448;9.056;2022-12-13T08:35:37;53.88;;;18.05;;
34146;SDS011;20423;49.448;9.056;2022-12-13T08:38:03;46.67;;;17.77;;
34146;SDS011;20423;49.448;9.056;2022-12-13T08:40:29;48.40;;;18.08;;
34146;SDS011;20423;49.448;9.056;2022-12-13T08:42:55;42.97;;;16.33;;
34146;SDS011;20423;49.448;9.056;2022-12-13T08:45:23;54.03;;;20.27;;
34146;SDS011;20423;49.448;9.056;2022-12-13T08:47:51;50.55;;;20.63;;
34146;SDS011;20423;49.448;9.056;2022-12-13T08:50:16;55.53;;;20.67;;
34146;SDS011;20423;49.448;9.056;2022-12-13T08:52:42;58.60;;;21.45;;
34146;SDS011;20423;49.448;9.056;2022-12-13T08:55:09;50.50;;;20.23;;
34146;SDS011;20423;49.448;9.056;2022-12-13T08:57:36;50.58;;;20.42;;
34146;SDS011;20423;49.448;9.056;2022-12-13T09:00:18;49.58;;;18.85;;
34146;SDS011;20423;49.448;9.056;2022-12-13T09:02:44;48.22;;;18.65;;
34146;SDS011;20423;49.448;9.056;2022-12-13T09:05:10;44.97;;;18.58;;
34146;SDS011;20423;49.448;9.056;2022-12-13T09:07:37;54.58;;;19.02;;
34146;SDS011;20423;49.448;9.056;2022-12-13T09:10:08;50.60;;;18.42;;
34146;SDS011;20423;49.448;9.056;2022-12-13T09:12:39;49.90;;;19.50;;
34146;SDS011;20423;49.448;9.056;2022-12-13T09:15:06;40.45;;;16.75;;
34146;SDS011;20423;49.448;9.056;2022-12-13T09:17:32;40.80;;;17.58;;
34146;SDS011;20423;49.448;9.056;2022-12-13T09:19:57;44.20;;;16.63;;
34146;SDS011;20423;49.448;9.056;2022-12-13T09:25:18;50.92;;;16.52;;
34146;SDS011;20423;49.448;9.056;2022-12-13T09:27:44;46.60;;;17.25;;
34146;SDS011;20423;49.448;9.056;2022-12-13T09:30:10;41.33;;;15.45;;
34146;SDS011;20423;49.448;9.056;2022-12-13T09:32:37;43.65;;;16.15;;
34146;SDS011;20423;49.448;9.056;2022-12-13T09:35:05;42.97;;;16.35;;
34146;SDS011;20423;49.448;9.056;2022-12-13T09:37:31;44.38;;;16.17;;
34146;SDS011;20423;49.448;9.056;2022-12-13T09:39:57;41.17;;;16.95;;
34146;SDS011;20423;49.448;9.056;2022-12-13T09:42:23;41.53;;;16.48;;
34146;SDS011;20423;49.448;9.056;2022-12-13T09:44:52;36.35;;;15.45;;
34146;SDS011;20423;49.448;9.056;2022-12-13T09:49:53;38.58;;;16.27;;
34146;SDS011;20423;49.448;9.056;2022-12-13T09:52:20;53.13;;;21.67;;
34146;SDS011;20423;49.448;9.056;2022-12-13T09:54:55;35.25;;;14.57;;
34146;SDS011;20423;49.448;9.056;2022-12-13T09:57:24;38.22;;;15.73;;
34146;SDS011;20423;49.448;9.056;2022-12-13T09:59:52;38.40;;;14.27;;
34146;SDS011;20423;49.448;9.056;2022-12-13T10:02:23;36.90;;;14.10;;
34146;SDS011;20423;49.448;9.056;2022-12-13T10:07:40;33.03;;;14.50;;
34146;SDS011;20423;49.448;9.056;2022-12-13T10:10:08;31.50;;;13.98;;
34146;SDS011;20423;49.448;9.056;2022-12-13T10:15:25;26.85;;;12.52;;
34146;SDS011;20423;49.448;9.056;2022-12-13T10:17:52;34.00;;;14.20;;
34146;SDS011;20423;49.448;9.056;2022-12-13T10:20:19;39.33;;;15.43;;
34146;SDS011;20423;49.448;9.056;2022-12-13T10:23:01;30.17;;;13.23;;
34146;SDS011;20423;49.448;9.056;2022-12-13T10:26:00;29.55;;;14.30;;
34146;SDS011;20423;49.448;9.056;2022-12-13T10:28:23;29.10;;;13.68;;
34146;SDS011;20423;49.448;9.056;2022-12-13T10:30:52;31.00;;;12.35;;
34146;SDS011;20423;49.448;9.056;2022-12-13T10:36:03;30.83;;;12.73;;
34146;SDS011;20423;49.448;9.056;2022-12-13T10:38:41;25.15;;;11.02;;
34146;SDS011;20423;49.448;9.056;2022-12-13T10:46:52;29.35;;;13.25;;
34146;SDS011;20423;49.448;9.056;2022-12-13T10:49:23;30.87;;;12.17;;
34146;SDS011;20423;49.448;9.056;2022-12-13T10:52:06;30.15;;;12.07;;
34146;SDS011;20423;49.448;9.056;2022-12-13T10:54:45;27.70;;;11.25;;
34146;SDS011;20423;49.448;9.056;2022-12-13T10:57:13;25.02;;;10.40;;
34146;SDS011;20423;49.448;9.056;2022-12-13T10:59:39;24.05;;;10.63;;
34146;SDS011;20423;49.448;9.056;2022-12-13T11:04:52;27.30;;;11.55;;
34146;SDS011;20423;49.448;9.056;2022-12-13T11:07:23;24.63;;;10.40;;
34146;SDS011;20423;49.448;9.056;2022-12-13T11:09:57;23.55;;;11.18;;
34146;SDS011;20423;49.448;9.056;2022-12-13T11:12:39;23.27;;;10.93;;
34146;SDS011;20423;49.448;9.056;2022-12-13T11:15:06;28.48;;;12.30;;
34146;SDS011;20423;49.448;9.056;2022-12-13T11:17:45;45.33;;;18.33;;
34146;SDS011;20423;49.448;9.056;2022-12-13T11:20:22;38.58;;;14.15;;
34146;SDS011;20423;49.448;9.056;2022-12-13T11:25:47;43.40;;;15.40;;
34146;SDS011;20423;49.448;9.056;2022-12-13T11:37:13;24.35;;;11.27;;
34146;SDS011;20423;49.448;9.056;2022-12-13T11:39:56;22.13;;;10.80;;
34146;SDS011;20423;49.448;9.056;2022-12-13T11:42:40;25.10;;;11.90;;
34146;SDS011;20423;49.448;9.056;2022-12-13T11:45:33;26.40;;;11.10;;
34146;SDS011;20423;49.448;9.056;2022-12-13T11:50:34;18.58;;;9.68;;
34146;SDS011;20423;49.448;9.056;2022-12-13T11:55:57;23.85;;;10.75;;
34146;SDS011;20423;49.448;9.056;2022-12-13T12:01:50;24.17;;;11.13;;
34146;SDS011;20423;49.448;9.056;2022-12-13T12:07:34;39.78;;;11.98;;
34146;SDS011;20423;49.448;9.056;2022-12-13T12:13:04;28.20;;;10.82;;
34146;SDS011;20423;49.448;9.056;2022-12-13T12:15:40;28.15;;;11.48;;
34146;SDS011;20423;49.448;9.056;2022-12-13T12:18:12;22.77;;;9.85;;
34146;SDS011;20423;49.448;9.056;2022-12-13T12:23:51;25.40;;;10.55;;
34146;SDS011;20423;49.448;9.056;2022-12-13T12:26:20;29.80;;;11.75;;
34146;SDS011;20423;49.448;9.056;2022-12-13T12:29:17;25.90;;;10.77;;
34146;SDS011;20423;49.448;9.056;2022-12-13T12:38:11;22.65;;;10.45;;
34146;SDS011;20423;49.448;9.056;2022-12-13T12:43:39;26.27;;;11.68;;
34146;SDS011;20423;49.448;9.056;2022-12-13T12:51:46;20.35;;;9.32;;
34146;SDS011;20423;49.448;9.056;2022-12-13T12:59:18;27.13;;;11.32;;
34146;SDS011;20423;49.448;9.056;2022-12-13T13:01:51;28.08;;;11.43;;
34146;SDS011;20423;49.448;9.056;2022-12-13T13:04:41;25.23;;;11.65;;
34146;SDS011;20423;49.448;9.056;2022-12-13T13:08:02;30.00;;;11.70;;
34146;SDS011;20423;49.448;9.056;2022-12-13T13:10:14;24.77;;;10.00;;
34146;SDS011;20423;49.448;9.056;2022-12-13T13:12:40;27.77;;;11.05;;
34146;SDS011;20423;49.448;9.056;2022-12-13T13:17:55;29.13;;;12.02;;
34146;SDS011;20423;49.448;9.056;2022-12-13T13:20:22;29.48;;;12.60;;
34146;SDS011;20423;49.448;9.056;2022-12-13T13:22:49;34.38;;;14.52;;
34146;SDS011;20423;49.448;9.056;2022-12-13T13:28:09;34.88;;;15.30;;
34146;SDS011;20423;49.448;9.056;2022-12-13T13:33:48;34.70;;;14.48;;
34146;SDS011;20423;49.448;9.056;2022-12-13T13:36:43;38.53;;;17.27;;
34146;SDS011;20423;49.448;9.056;2022-12-13T13:39:14;41.50;;;16.23;;
34146;SDS011;20423;49.448;9.056;2022-12-13T13:47:33;67.15;;;22.92;;
34146;SDS011;20423;49.448;9.056;2022-12-13T13:53:15;59.65;;;20.98;;
34146;SDS011;20423;49.448;9.056;2022-12-13T14:25:07;41.78;;;16.02;;
34146;SDS011;20423;49.448;9.056;2022-12-13T14:28:07;39.15;;;16.58;;
34146;SDS011;20423;49.448;9.056;2022-12-13T14:31:02;39.88;;;16.73;;
34146;SDS011;20423;49.448;9.056;2022-12-13T14:33:27;39.95;;;16.33;;
34146;SDS011;20423;49.448;9.056;2022-12-13T14:35:57;39.50;;;16.95;;
34146;SDS011;20423;49.448;9.056;2022-12-13T14:38:26;43.97;;;18.38;;
34146;SDS011;20423;49.448;9.056;2022-12-13T14:40:58;42.03;;;16.90;;
34146;SDS011;20423;49.448;9.056;2022-12-13T14:43:27;43.15;;;18.00;;
34146;SDS011;20423;49.448;9.056;2022-12-13T14:45:55;44.15;;;18.48;;
34146;SDS011;20423;49.448;9.056;2022-12-13T14:48:23;47.00;;;18.50;;
34146;SDS011;20423;49.448;9.056;2022-12-13T14:50:50;46.47;;;18.98;;
34146;SDS011;20423;49.448;9.056;2022-12-13T14:53:24;44.83;;;18.00;;
34146;SDS011;20423;49.448;9.056;2022-12-13T14:58:39;40.63;;;18.38;;
34146;SDS011;20423;49.448;9.056;2022-12-13T15:06:48;47.83;;;21.00;;
34146;SDS011;20423;49.448;9.056;2022-12-13T15:09:20;51.10;;;19.23;;
34146;SDS011;20423;49.448;9.056;2022-12-13T15:11:46;54.45;;;21.08;;
34146;SDS011;20423;49.448;9.056;2022-12-13T15:14:15;48.75;;;20.10;;
34146;SDS011;20423;49.448;9.056;2022-12-13T15:19:19;44.72;;;19.73;;
34146;SDS011;20423;49.448;9.056;2022-12-13T15:21:54;51.92;;;19.15;;
34146;SDS011;20423;49.448;9.056;2022-12-13T15:24:23;53.03;;;21.10;;
34146;SDS011;20423;49.448;9.056;2022-12-13T15:26:57;49.25;;;20.92;;
34146;SDS011;20423;49.448;9.056;2022-12-13T15:29:24;44.63;;;19.65;;
34146;SDS011;20423;49.448;9.056;2022-12-13T15:31:53;66.60;;;26.00;;
34146;SDS011;20423;49.448;9.056;2022-12-13T15:34:21;99.75;;;31.90;;
34146;SDS011;20423;49.448;9.056;2022-12-13T15:37:36;92.30;;;29.15;;
34146;SDS011;20423;49.448;9.056;2022-12-13T15:39:53;81.70;;;28.20;;
34146;SDS011;20423;49.448;9.056;2022-12-13T15:42:43;54.17;;;22.25;;
34146;SDS011;20423;49.448;9.056;2022-12-13T15:45:24;52.80;;;21.00;;
34146;SDS011;20423;49.448;9.056;2022-12-13T15:47:51;44.05;;;18.95;;
34146;SDS011;20423;49.448;9.056;2022-12-13T15:50:29;46.60;;;20.92;;
34146;SDS011;20423;49.448;9.056;2022-12-13T15:53:00;52.00;;;21.60;;
34146;SDS011;20423;49.448;9.056;2022-12-13T15:55:32;56.30;;;21.23;;
34146;SDS011;20423;49.448;9.056;2022-12-13T15:58:00;49.88;;;19.45;;
34146;SDS011;20423;49.448;9.056;2022-12-13T16:00:31;52.10;;;21.23;;
34146;SDS011;20423;49.448;9.056;2022-12-13T16:03:06;52.05;;;20.92;;
34146;SDS011;20423;49.448;9.056;2022-12-13T16:05:45;47.85;;;18.77;;
34146;SDS011;20423;49.448;9.056;2022-12-13T16:08:29;48.58;;;20.30;;
34146;SDS011;20423;49.448;9.056;2022-12-13T16:10:57;52.58;;;20.15;;
34146;SDS011;20423;49.448;9.056;2022-12-13T16:15:55;51.80;;;20.15;;
34146;SDS011;20423;49.448;9.056;2022-12-13T16:18:45;48.63;;;19.58;;
34146;SDS011;20423;49.448;9.056;2022-12-13T16:21:21;46.13;;;18.80;;
34146;SDS011;20423;49.448;9.056;2022-12-13T16:23:47;53.55;;;20.58;;
34146;SDS011;20423;49.448;9.056;2022-12-13T16:26:13;49.78;;;19.50;;
34146;SDS011;20423;49.448;9.056;2022-12-13T16:28:44;47.38;;;19.95;;
34146;SDS011;20423;49.448;9.056;2022-12-13T16:31:21;47.30;;;19.58;;
34146;SDS011;20423;49.448;9.056;2022-12-13T16:33:55;53.13;;;19.25;;
34146;SDS011;20423;49.448;9.056;2022-12-13T16:36:23;49.08;;;20.73;;
34146;SDS011;20423;49.448;9.056;2022-12-13T16:38:55;55.65;;;20.85;;
34146;SDS011;20423;49.448;9.056;2022-12-13T16:41:20;52.38;;;19.70;;
34146;SDS011;20423;49.448;9.056;2022-12-13T16:46:20;42.30;;;18.02;;
34146;SDS011;20423;49.448;9.056;2022-12-13T16:48:47;40.95;;;17.60;;
34146;SDS011;20423;49.448;9.056;2022-12-13T16:51:13;38.88;;;18.10;;
34146;SDS011;20423;49.448;9.056;2022-12-13T16:53:38;42.05;;;17.30;;
34146;SDS011;20423;49.448;9.056;2022-12-13T16:56:04;46.30;;;18.73;;
34146;SDS011;20423;49.448;9.056;2022-12-13T16:58:31;43.67;;;17.67;;
34146;SDS011;20423;49.448;9.056;2022-12-13T17:00:56;40.03;;;17.38;;
34146;SDS011;20423;49.448;9.056;2022-12-13T17:03:24;46.97;;;18.10;;
34146;SDS011;20423;49.448;9.056;2022-12-13T17:05:49;44.70;;;18.67;;
34146;SDS011;20423;49.448;9.056;2022-12-13T17:08:15;45.65;;;18.08;;
34146;SDS011;20423;49.448;9.056;2022-12-13T17:10:42;45.42;;;17.42;;
34146;SDS011;20423;49.448;9.056;2022-12-13T17:13:08;40.65;;;17.85;;
34146;SDS011;20423;49.448;9.056;2022-12-13T17:15:35;42.13;;;15.90;;
34146;SDS011;20423;49.448;9.056;2022-12-13T17:18:01;45.85;;;18.02;;